Time;durP1;ratioP1;P1;durP2;ratioP2;P2;SDS_P1;SDS_P2;PMS_P1;PMS_P2;Temp;Humidity;BMP_temperature;BMP_pressure;BME280_temperature;BME280_humidity;BME280_pressure;Samples;Min_cycle;Max_cycle;Signal;HPM_P1;HPM_P2
2021/12/10 00:00:38;;;;;;;21.57;11.93;;;0.10;99.90;;;;;;5079109;28;20237;-64
2021/12/10 00:03:10;;;;;;;26.27;12.43;;;0.00;99.90;;;;;;5075746;28;20270;-64
2021/12/10 00:05:44;;;;;;;26.83;12.00;;;0.10;99.90;;;;;;5093693;28;20200;-64
2021/12/10 00:08:11;;;;;;;22.63;10.87;;;0.00;99.90;;;;;;5090876;28;20705;-65
2021/12/10 00:10:41;;;;;;;22.43;11.33;;;0.10;99.90;;;;;;5084258;28;20225;-65
2021/12/10 00:13:09;;;;;;;24.93;11.17;;;0.10;99.90;;;;;;5088495;28;20260;-63
2021/12/10 00:15:39;;;;;;;25.93;12.33;;;0.10;99.90;;;;;;5073993;28;20691;-64
2021/12/10 00:18:09;;;;;;;26.37;12.33;;;0.20;99.90;;;;;;5076976;28;20216;-64
2021/12/10 00:20:39;;;;;;;24.50;12.77;;;0.10;99.90;;;;;;5082532;28;20664;-64
2021/12/10 00:23:12;;;;;;;24.37;12.43;;;0.10;99.90;;;;;;5086993;28;20244;-63
2021/12/10 00:25:45;;;;;;;26.70;13.20;;;0.20;99.90;;;;;;5065890;28;20244;-64
2021/12/10 00:28:16;;;;;;;24.80;11.73;;;0.10;99.90;;;;;;5077147;28;20688;-64
2021/12/10 00:30:59;;;;;;;27.10;13.10;;;0.10;99.90;;;;;;5080348;28;20220;-64
2021/12/10 00:33:27;;;;;;;25.87;12.10;;;0.10;99.90;;;;;;5079319;28;20259;-64
2021/12/10 00:35:56;;;;;;;26.33;12.87;;;0.10;99.90;;;;;;5078520;28;20632;-64
2021/12/10 00:38:25;;;;;;;28.67;11.80;;;0.10;99.90;;;;;;5074302;28;20229;-63
2021/12/10 00:40:52;;;;;;;27.00;13.30;;;0.10;99.90;;;;;;5080239;28;20579;-64
2021/12/10 00:43:19;;;;;;;31.17;13.60;;;0.10;99.90;;;;;;5093443;28;20212;-63
2021/12/10 00:45:46;;;;;;;21.37;11.13;;;0.10;99.90;;;;;;5079865;28;20244;-63
2021/12/10 00:48:13;;;;;;;26.30;12.73;;;0.10;99.90;;;;;;5076620;28;20256;-64
2021/12/10 00:50:51;;;;;;;26.73;12.70;;;0.10;99.90;;;;;;5072994;28;20544;-63
2021/12/10 00:53:19;;;;;;;27.37;11.60;;;0.10;99.90;;;;;;5061656;28;20233;-64
2021/12/10 00:55:47;;;;;;;28.53;12.83;;;0.10;99.90;;;;;;5073643;28;20240;-63
2021/12/10 00:58:15;;;;;;;21.10;10.73;;;0.10;99.90;;;;;;5073360;28;20263;-63
2021/12/10 01:00:46;;;;;;;25.90;11.83;;;0.10;99.90;;;;;;5084488;28;20678;-64
2021/12/10 01:03:18;;;;;;;24.80;11.70;;;0.10;99.90;;;;;;5083253;28;20605;-64
2021/12/10 01:05:49;;;;;;;30.07;13.40;;;0.10;99.90;;;;;;5083465;28;20479;-64
2021/12/10 01:08:17;;;;;;;27.80;13.07;;;0.10;99.90;;;;;;5086166;28;20224;-63
2021/12/10 01:10:50;;;;;;;27.90;12.43;;;0.10;99.90;;;;;;5073853;28;20419;-63
2021/12/10 01:13:25;;;;;;;22.73;11.07;;;0.10;99.90;;;;;;5081496;28;20225;-63
2021/12/10 01:16:10;;;;;;;24.13;11.77;;;0.10;99.90;;;;;;5079931;28;20197;-63
2021/12/10 01:24:36;;;;;;;22.97;12.17;;;0.20;99.90;;;;;;5072194;28;20227;-63
2021/12/10 01:27:13;;;;;;;24.53;12.20;;;0.20;99.90;;;;;;5095746;28;20205;-62
2021/12/10 01:29:42;;;;;;;26.60;11.93;;;0.20;99.90;;;;;;5079686;28;20213;-64
2021/12/10 01:32:13;;;;;;;24.97;11.37;;;0.30;99.90;;;;;;5091268;28;20316;-62
2021/12/10 01:34:41;;;;;;;24.67;12.50;;;0.30;99.90;;;;;;5076540;28;20252;-62
2021/12/10 01:37:10;;;;;;;22.93;11.63;;;0.30;99.90;;;;;;5090414;28;20295;-65
2021/12/10 01:39:39;;;;;;;25.80;12.43;;;0.30;99.90;;;;;;5086544;28;20354;-63
2021/12/10 01:42:20;;;;;;;19.10;10.47;;;0.30;99.90;;;;;;5078064;28;20316;-64
2021/12/10 01:44:52;;;;;;;24.40;12.00;;;0.30;99.90;;;;;;5078825;28;20280;-63
2021/12/10 01:47:22;;;;;;;27.90;12.10;;;0.30;99.90;;;;;;5093519;28;20200;-64
2021/12/10 01:49:49;;;;;;;26.90;11.70;;;0.30;99.90;;;;;;5081928;28;20349;-62
2021/12/10 01:52:18;;;;;;;26.63;11.47;;;0.30;99.90;;;;;;5096325;28;20266;-63
2021/12/10 01:54:49;;;;;;;24.37;11.87;;;0.30;99.90;;;;;;5089453;28;20591;-63
2021/12/10 01:57:20;;;;;;;28.20;12.67;;;0.40;99.90;;;;;;5083280;28;20704;-63
2021/12/10 01:59:48;;;;;;;28.70;12.47;;;0.30;99.90;;;;;;5078993;28;20256;-64
2021/12/10 02:02:18;;;;;;;24.07;11.47;;;0.30;99.90;;;;;;5086825;28;20273;-63
2021/12/10 02:04:47;;;;;;;30.30;12.43;;;0.30;99.90;;;;;;5087105;28;20613;-63
2021/12/10 02:07:17;;;;;;;26.57;11.27;;;0.40;99.90;;;;;;5096039;28;20233;-63
2021/12/10 02:09:44;;;;;;;24.83;11.37;;;0.40;99.90;;;;;;5086644;28;20300;-65
2021/12/10 02:12:11;;;;;;;23.70;12.37;;;0.40;99.90;;;;;;5089879;28;20291;-63
2021/12/10 02:14:39;;;;;;;26.33;11.73;;;0.40;99.90;;;;;;5085332;28;20268;-63
2021/12/10 02:17:07;;;;;;;27.10;12.30;;;0.40;99.90;;;;;;5082890;28;20205;-62
2021/12/10 02:19:35;;;;;;;30.73;12.50;;;0.40;99.90;;;;;;5086062;28;20237;-63
2021/12/10 02:22:04;;;;;;;27.37;13.03;;;0.40;99.90;;;;;;5094994;28;20209;-63
2021/12/10 02:24:31;;;;;;;24.57;11.70;;;0.40;99.90;;;;;;5085374;28;20637;-63
2021/12/10 02:27:01;;;;;;;21.97;11.17;;;0.40;99.90;;;;;;5093192;28;20262;-62
2021/12/10 02:29:31;;;;;;;27.87;13.23;;;0.40;99.90;;;;;;5087402;28;20249;-64
2021/12/10 02:31:58;;;;;;;25.17;11.83;;;0.40;99.90;;;;;;5077179;28;20356;-62
2021/12/10 02:34:28;;;;;;;29.23;11.67;;;0.50;99.90;;;;;;5090916;28;20284;-63
2021/12/10 02:36:56;;;;;;;24.83;11.20;;;0.40;99.90;;;;;;5090158;28;20669;-63
2021/12/10 02:39:27;;;;;;;21.70;10.87;;;0.40;99.90;;;;;;5087836;28;20296;-64
2021/12/10 02:41:55;;;;;;;22.33;11.63;;;0.40;99.90;;;;;;5088682;28;20291;-62
2021/12/10 02:44:25;;;;;;;22.80;11.13;;;0.40;99.90;;;;;;5087564;28;20634;-63
2021/12/10 02:46:52;;;;;;;20.07;10.53;;;0.40;99.90;;;;;;5076723;28;20271;-63
2021/12/10 02:49:20;;;;;;;22.97;11.03;;;0.40;99.90;;;;;;5075633;28;20556;-64
2021/12/10 02:51:47;;;;;;;26.60;10.80;;;0.40;99.90;;;;;;5095109;28;20543;-62
2021/12/10 02:54:21;;;;;;;24.17;11.10;;;0.40;99.90;;;;;;5093517;28;20658;-64
2021/12/10 02:56:49;;;;;;;22.23;10.27;;;0.40;99.90;;;;;;5068228;28;20227;-62
2021/12/10 02:59:16;;;;;;;24.23;10.87;;;0.40;99.90;;;;;;5082225;28;20300;-63
2021/12/10 03:01:45;;;;;;;24.80;10.77;;;0.40;99.90;;;;;;5091309;28;20246;-62
2021/12/10 03:04:13;;;;;;;23.67;11.50;;;0.40;99.90;;;;;;5093827;28;20205;-64
2021/12/10 03:06:45;;;;;;;21.40;10.53;;;0.50;99.90;;;;;;5092388;28;20295;-64
2021/12/10 03:09:13;;;;;;;23.37;10.67;;;0.50;99.90;;;;;;5088992;28;20205;-65
2021/12/10 03:11:46;;;;;;;27.53;11.97;;;0.50;99.90;;;;;;5092170;28;20290;-63
2021/12/10 03:14:18;;;;;;;20.17;10.77;;;0.50;99.90;;;;;;5084117;28;20213;-64
2021/12/10 03:16:47;;;;;;;18.47;9.77;;;0.50;99.90;;;;;;5077641;28;20236;-63
2021/12/10 03:19:14;;;;;;;20.87;10.60;;;0.60;99.90;;;;;;5089699;28;20240;-63
2021/12/10 03:21:44;;;;;;;21.07;10.70;;;0.60;99.90;;;;;;5089901;28;20721;-64
2021/12/10 03:24:12;;;;;;;21.87;9.77;;;0.60;99.90;;;;;;5085719;28;20681;-65
2021/12/10 03:26:39;;;;;;;22.47;10.73;;;0.60;99.90;;;;;;5075121;28;20300;-63
2021/12/10 03:29:06;;;;;;;17.43;10.40;;;0.60;99.90;;;;;;5086250;28;20233;-65
2021/12/10 03:31:35;;;;;;;21.03;9.63;;;0.60;99.90;;;;;;5086392;28;20332;-64
2021/12/10 03:34:04;;;;;;;19.03;9.80;;;0.70;99.90;;;;;;5061126;28;20224;-64
2021/12/10 03:36:32;;;;;;;18.27;9.83;;;0.70;99.90;;;;;;5085419;28;20669;-63
2021/12/10 03:38:59;;;;;;;20.77;9.77;;;0.70;99.90;;;;;;5090649;28;20291;-64
2021/12/10 03:41:26;;;;;;;20.77;9.97;;;0.70;99.90;;;;;;5074245;28;20233;-63
2021/12/10 03:43:55;;;;;;;22.10;10.27;;;0.60;99.90;;;;;;5074495;28;20248;-63
2021/12/10 03:46:23;;;;;;;20.30;10.60;;;0.70;99.90;;;;;;5076295;28;20240;-64
2021/12/10 03:48:52;;;;;;;19.30;10.03;;;0.70;99.90;;;;;;5072382;28;20273;-65
2021/12/10 03:51:23;;;;;;;17.83;10.10;;;0.80;99.90;;;;;;5078241;28;20654;-64
2021/12/10 03:53:51;;;;;;;19.63;9.57;;;0.70;99.90;;;;;;5094779;28;20283;-63
2021/12/10 03:56:20;;;;;;;21.33;9.90;;;0.80;99.90;;;;;;5079531;28;20758;-64
2021/12/10 03:58:48;;;;;;;21.50;10.37;;;0.80;99.90;;;;;;5093593;28;20215;-64
2021/12/10 04:01:18;;;;;;;16.23;10.03;;;0.80;99.90;;;;;;5090648;28;20308;-63
2021/12/10 04:03:47;;;;;;;18.40;9.37;;;0.90;99.90;;;;;;5086195;28;20241;-65
2021/12/10 04:06:16;;;;;;;17.67;9.23;;;0.90;99.90;;;;;;5085778;28;20271;-64
2021/12/10 04:08:43;;;;;;;16.90;8.27;;;0.90;99.90;;;;;;5079403;28;20748;-64
2021/12/10 04:11:14;;;;;;;21.93;9.47;;;0.90;99.90;;;;;;5087537;28;20757;-64
2021/12/10 04:13:43;;;;;;;19.00;9.30;;;0.90;99.90;;;;;;5088788;28;20222;-65
2021/12/10 04:16:10;;;;;;;18.13;9.47;;;0.90;99.90;;;;;;5072910;28;20220;-63
2021/12/10 04:18:37;;;;;;;18.47;9.10;;;1.00;99.90;;;;;;5085157;28;20228;-64
2021/12/10 04:21:05;;;;;;;22.10;8.40;;;1.00;99.90;;;;;;5083817;28;20222;-64
2021/12/10 04:23:37;;;;;;;16.20;9.03;;;1.00;99.90;;;;;;5094108;28;20706;-64
2021/12/10 04:26:04;;;;;;;13.03;7.53;;;1.00;99.90;;;;;;5087510;28;20232;-63
2021/12/10 04:28:32;;;;;;;16.63;8.67;;;1.00;99.90;;;;;;5092638;28;20268;-63
2021/12/10 04:30:59;;;;;;;13.97;7.60;;;1.00;99.90;;;;;;5076402;28;20221;-63
2021/12/10 04:33:26;;;;;;;14.30;8.50;;;1.00;99.90;;;;;;5073307;28;20324;-64
2021/12/10 04:35:56;;;;;;;15.73;8.30;;;1.00;99.90;;;;;;5080364;28;20209;-63
2021/12/10 04:38:24;;;;;;;14.23;7.70;;;1.00;99.90;;;;;;5094094;28;20304;-64
2021/12/10 04:40:54;;;;;;;14.07;7.47;;;1.00;99.90;;;;;;5081064;28;20677;-63
2021/12/10 04:43:23;;;;;;;12.07;7.20;;;1.10;99.90;;;;;;5095686;28;20576;-64
2021/12/10 04:45:52;;;;;;;14.57;8.07;;;1.00;99.90;;;;;;5086664;28;20208;-63
2021/12/10 04:48:19;;;;;;;16.03;8.50;;;1.10;99.90;;;;;;5081519;28;20292;-65
2021/12/10 04:50:46;;;;;;;16.40;8.50;;;1.10;99.90;;;;;;5091280;28;20232;-64
2021/12/10 04:53:14;;;;;;;12.47;7.53;;;1.10;99.90;;;;;;5097844;28;20279;-65
2021/12/10 04:55:41;;;;;;;15.17;8.80;;;1.10;99.90;;;;;;5098153;28;20224;-64
2021/12/10 04:58:11;;;;;;;16.50;7.80;;;1.20;99.90;;;;;;5079326;28;20231;-64
2021/12/10 05:00:42;;;;;;;14.53;7.93;;;1.20;99.90;;;;;;5087509;28;20761;-64
2021/12/10 05:03:10;;;;;;;13.33;7.23;;;1.20;99.90;;;;;;5097745;28;20200;-64
2021/12/10 05:05:41;;;;;;;11.93;7.43;;;1.30;99.90;;;;;;5097486;28;20208;-64
2021/12/10 05:08:09;;;;;;;15.63;7.70;;;1.30;99.90;;;;;;5090433;28;20978;-65
2021/12/10 05:10:36;;;;;;;14.90;8.60;;;1.30;99.90;;;;;;5076005;28;20540;-65
2021/12/10 05:13:04;;;;;;;12.93;7.10;;;1.30;99.90;;;;;;5071444;28;20705;-64
2021/12/10 05:15:37;;;;;;;14.63;7.97;;;1.40;99.90;;;;;;5079861;28;20268;-65
2021/12/10 05:18:04;;;;;;;11.93;6.73;;;1.40;99.90;;;;;;5077465;28;20197;-65
2021/12/10 05:20:34;;;;;;;14.07;6.97;;;1.40;99.90;;;;;;5077408;28;20228;-64
2021/12/10 05:23:01;;;;;;;13.20;7.17;;;1.50;99.90;;;;;;5097684;28;20646;-63
2021/12/10 05:25:29;;;;;;;11.23;6.73;;;1.50;99.90;;;;;;5085690;28;20271;-63
2021/12/10 05:27:57;;;;;;;14.67;6.93;;;1.50;99.90;;;;;;5080296;28;20296;-63
2021/12/10 05:30:27;;;;;;;15.17;7.53;;;1.50;99.90;;;;;;5079317;28;20710;-64
2021/12/10 05:32:56;;;;;;;13.27;7.50;;;1.60;99.90;;;;;;5096438;28;20268;-64
2021/12/10 05:35:23;;;;;;;11.83;6.40;;;1.60;99.90;;;;;;5079419;28;20263;-64
2021/12/10 05:37:50;;;;;;;13.20;7.57;;;1.50;99.90;;;;;;5091550;28;20201;-64
2021/12/10 05:40:17;;;;;;;12.03;6.97;;;1.60;99.90;;;;;;5080092;28;20300;-64
2021/12/10 05:42:46;;;;;;;13.87;7.07;;;1.60;99.90;;;;;;5090125;28;20608;-65
2021/12/10 05:45:15;;;;;;;14.53;7.93;;;1.60;99.90;;;;;;5090080;28;20220;-64
2021/12/10 05:47:42;;;;;;;13.80;7.27;;;1.60;99.90;;;;;;5080718;28;20287;-63
2021/12/10 05:50:14;;;;;;;13.17;7.43;;;1.60;99.90;;;;;;5084255;28;20265;-63
2021/12/10 05:52:40;;;;;;;13.30;7.67;;;1.60;99.90;;;;;;5095523;28;20307;-63
2021/12/10 05:55:08;;;;;;;12.47;7.03;;;1.70;99.90;;;;;;5095765;28;20287;-63
2021/12/10 05:57:35;;;;;;;11.37;6.83;;;1.70;99.90;;;;;;5086825;28;20233;-63
2021/12/10 06:00:03;;;;;;;13.27;6.77;;;1.70;99.90;;;;;;5091051;28;20224;-65
2021/12/10 06:02:30;;;;;;;12.17;7.10;;;1.70;99.90;;;;;;5079820;28;20209;-64
2021/12/10 06:04:58;;;;;;;13.93;8.10;;;1.70;99.90;;;;;;5081022;28;20300;-65
2021/12/10 06:07:27;;;;;;;13.00;6.93;;;1.70;99.90;;;;;;5085634;28;20224;-64
2021/12/10 06:09:54;;;;;;;12.80;7.23;;;1.70;99.90;;;;;;5085578;28;20221;-62
2021/12/10 06:12:21;;;;;;;11.80;7.13;;;1.80;99.90;;;;;;5095892;28;20250;-62
2021/12/10 06:14:48;;;;;;;12.73;6.83;;;1.80;99.90;;;;;;5094440;28;20268;-63
2021/12/10 06:17:14;;;;;;;11.93;6.37;;;1.80;99.90;;;;;;5082573;28;20291;-63
2021/12/10 06:19:41;;;;;;;10.70;6.03;;;1.90;99.90;;;;;;5080435;28;20296;-64
2021/12/10 06:22:08;;;;;;;11.23;6.83;;;1.80;99.90;;;;;;5081132;28;20714;-64
2021/12/10 06:24:37;;;;;;;11.03;6.20;;;1.90;99.90;;;;;;5094901;28;20205;-65
2021/12/10 06:27:04;;;;;;;11.87;6.50;;;1.90;99.90;;;;;;5093744;28;20750;-64
2021/12/10 06:29:31;;;;;;;10.57;6.10;;;1.90;99.90;;;;;;5077261;28;20300;-63
2021/12/10 06:31:58;;;;;;;11.47;6.23;;;1.90;99.90;;;;;;5078373;28;20240;-65
2021/12/10 06:34:25;;;;;;;12.47;6.67;;;1.90;99.90;;;;;;5078575;28;20237;-64
2021/12/10 06:36:52;;;;;;;12.57;6.33;;;1.90;99.90;;;;;;5073689;28;20233;-64
2021/12/10 06:39:25;;;;;;;10.93;6.77;;;1.90;99.90;;;;;;5087782;28;20204;-64
2021/12/10 06:41:55;;;;;;;11.57;6.93;;;1.90;99.90;;;;;;5084429;28;20677;-63
2021/12/10 06:44:23;;;;;;;10.37;5.53;;;1.90;99.90;;;;;;5082765;28;20617;-63
2021/12/10 06:46:52;;;;;;;10.67;6.57;;;1.90;99.90;;;;;;5093136;28;20232;-64
2021/12/10 06:49:19;;;;;;;12.27;6.27;;;2.00;99.90;;;;;;5080243;28;20251;-63
2021/12/10 06:51:47;;;;;;;12.93;6.93;;;2.00;99.90;;;;;;5094234;28;20232;-63
2021/12/10 06:54:14;;;;;;;9.83;6.20;;;2.00;99.90;;;;;;5092278;28;20231;-63
2021/12/10 06:56:42;;;;;;;14.47;7.30;;;2.10;99.90;;;;;;5094180;28;20751;-62
2021/12/10 06:59:11;;;;;;;14.33;7.33;;;2.00;99.90;;;;;;5085682;28;20235;-63
2021/12/10 07:01:41;;;;;;;12.67;6.97;;;2.00;99.90;;;;;;5089204;28;20279;-63
2021/12/10 07:04:11;;;;;;;10.20;6.20;;;2.00;99.90;;;;;;5074919;28;20201;-62
2021/12/10 07:06:40;;;;;;;10.93;6.80;;;2.00;99.90;;;;;;5085764;28;20209;-63
2021/12/10 07:09:12;;;;;;;12.77;6.97;;;2.00;99.90;;;;;;5084997;28;20268;-64
2021/12/10 07:11:39;;;;;;;12.93;7.10;;;2.00;99.90;;;;;;5092765;28;20272;-64
2021/12/10 07:14:07;;;;;;;11.67;7.43;;;2.00;99.90;;;;;;5074310;28;20760;-63
2021/12/10 07:16:36;;;;;;;13.00;8.00;;;2.10;99.90;;;;;;5069372;28;20230;-69
2021/12/10 07:19:05;;;;;;;10.63;6.90;;;2.00;99.90;;;;;;5065546;28;20221;-68
2021/12/10 07:21:33;;;;;;;12.47;7.60;;;2.00;99.90;;;;;;5062491;28;20213;-67
2021/12/10 07:24:02;;;;;;;16.10;10.40;;;2.00;99.90;;;;;;5071663;28;20464;-68
2021/12/10 07:26:30;;;;;;;12.33;7.83;;;2.10;99.90;;;;;;5069685;28;20860;-69
2021/12/10 07:28:58;;;;;;;13.97;8.40;;;2.10;99.90;;;;;;5068526;28;20210;-65
2021/12/10 07:31:26;;;;;;;12.70;7.80;;;2.10;99.90;;;;;;5066703;28;20363;-66
2021/12/10 07:33:55;;;;;;;13.60;7.47;;;2.10;99.90;;;;;;5070881;28;20289;-66
2021/12/10 07:36:22;;;;;;;13.37;7.60;;;2.10;99.90;;;;;;5072633;28;20237;-67
2021/12/10 07:38:49;;;;;;;12.70;7.73;;;2.10;99.90;;;;;;5071713;28;20356;-67
2021/12/10 07:41:16;;;;;;;14.03;7.83;;;2.10;99.90;;;;;;5072170;28;20288;-65
2021/12/10 07:43:44;;;;;;;13.07;7.50;;;2.10;99.90;;;;;;5074426;28;20209;-66
2021/12/10 07:46:12;;;;;;;15.23;9.33;;;2.10;99.90;;;;;;5066720;28;20241;-66
2021/12/10 07:48:42;;;;;;;15.20;8.00;;;2.10;99.90;;;;;;5072418;28;20288;-67
2021/12/10 07:51:15;;;;;;;13.30;7.90;;;2.10;99.90;;;;;;5074518;28;20300;-66
2021/12/10 07:53:43;;;;;;;14.43;9.30;;;2.10;99.90;;;;;;5074135;28;20486;-66
2021/12/10 07:56:12;;;;;;;14.57;8.83;;;2.10;99.90;;;;;;5085993;28;20290;-66
2021/12/10 07:58:42;;;;;;;15.93;9.77;;;2.10;99.90;;;;;;5073440;28;20213;-64
2021/12/10 08:01:13;;;;;;;16.17;9.60;;;2.10;99.90;;;;;;5070026;28;20212;-64
2021/12/10 08:03:40;;;;;;;16.60;9.60;;;2.20;99.90;;;;;;5070134;28;20217;-66
2021/12/10 08:06:08;;;;;;;15.70;9.67;;;2.20;99.90;;;;;;5073287;28;20209;-67
2021/12/10 08:08:36;;;;;;;17.53;10.47;;;2.20;99.90;;;;;;5074517;28;20692;-67
2021/12/10 08:11:04;;;;;;;21.03;10.60;;;2.30;99.90;;;;;;5072963;28;20270;-67
2021/12/10 08:13:31;;;;;;;14.93;10.23;;;2.30;99.90;;;;;;5071218;28;20256;-67
2021/12/10 08:15:58;;;;;;;19.23;10.97;;;2.30;99.90;;;;;;5072440;28;20205;-69
2021/12/10 08:18:26;;;;;;;18.23;10.53;;;2.30;99.90;;;;;;5070677;28;20205;-66
2021/12/10 08:20:53;;;;;;;19.37;11.10;;;2.30;99.90;;;;;;5074745;28;20216;-66
2021/12/10 08:23:20;;;;;;;20.70;12.40;;;2.30;99.90;;;;;;5074605;28;20201;-66
2021/12/10 08:25:49;;;;;;;17.03;10.40;;;2.40;99.90;;;;;;5068904;28;20735;-65
2021/12/10 08:28:18;;;;;;;18.33;11.13;;;2.40;99.90;;;;;;5074775;28;20205;-65
2021/12/10 08:30:45;;;;;;;18.10;11.50;;;2.40;99.90;;;;;;5069750;28;20224;-66
2021/12/10 08:33:13;;;;;;;18.37;12.13;;;2.30;99.90;;;;;;5073774;28;20233;-65
2021/12/10 08:35:43;;;;;;;20.47;12.03;;;2.30;99.90;;;;;;5064896;28;20209;-66
2021/12/10 08:38:09;;;;;;;19.83;13.00;;;2.30;99.90;;;;;;5063387;28;20728;-69
2021/12/10 08:40:40;;;;;;;21.30;12.37;;;2.30;99.90;;;;;;5068399;28;20352;-66
2021/12/10 08:43:09;;;;;;;23.47;13.90;;;2.30;99.90;;;;;;5066243;28;20640;-66
2021/12/10 08:45:37;;;;;;;22.93;13.57;;;2.40;99.90;;;;;;5071902;28;20292;-67
2021/12/10 08:48:05;;;;;;;23.23;13.53;;;2.40;99.90;;;;;;5071252;28;20247;-67
2021/12/10 08:50:33;;;;;;;20.40;12.93;;;2.40;99.90;;;;;;5058692;28;20202;-65
2021/12/10 08:53:02;;;;;;;24.67;13.60;;;2.40;99.90;;;;;;5069595;28;20220;-66
2021/12/10 08:55:31;;;;;;;27.00;15.33;;;2.40;99.90;;;;;;5077933;28;20649;-67
2021/12/10 08:57:58;;;;;;;27.10;14.53;;;2.40;99.90;;;;;;5083486;28;20856;-64
2021/12/10 09:00:28;;;;;;;23.83;14.13;;;2.40;99.90;;;;;;5079164;28;20625;-64
2021/12/10 09:02:57;;;;;;;22.60;13.90;;;2.40;99.90;;;;;;5087001;28;20709;-65
2021/12/10 09:05:25;;;;;;;25.67;14.77;;;2.40;99.90;;;;;;5081372;28;20530;-65
2021/12/10 09:07:52;;;;;;;27.73;15.03;;;2.40;99.90;;;;;;5072540;28;20296;-65
2021/12/10 09:10:22;;;;;;;27.63;16.47;;;2.30;99.90;;;;;;5073317;28;20292;-63
2021/12/10 09:12:50;;;;;;;28.47;15.70;;;2.40;99.90;;;;;;5084604;28;20304;-64
2021/12/10 09:15:21;;;;;;;30.57;15.43;;;2.40;99.90;;;;;;5089793;28;20215;-65
2021/12/10 09:17:50;;;;;;;30.83;17.00;;;2.40;99.90;;;;;;5072196;28;20209;-65
2021/12/10 09:20:21;;;;;;;27.13;15.30;;;2.40;99.90;;;;;;5070753;28;20210;-65
2021/12/10 09:22:49;;;;;;;26.93;16.37;;;2.40;99.90;;;;;;5064616;28;20284;-64
2021/12/10 09:25:17;;;;;;;34.20;18.67;;;2.40;99.90;;;;;;5066412;28;20292;-66
2021/12/10 09:27:44;;;;;;;32.83;19.87;;;2.40;99.90;;;;;;5072366;28;20724;-66
2021/12/10 09:30:16;;;;;;;37.77;19.53;;;2.40;99.90;;;;;;5075123;28;20295;-64
2021/12/10 09:32:44;;;;;;;37.33;20.20;;;2.50;99.90;;;;;;5075011;28;20680;-65
2021/12/10 09:35:14;;;;;;;37.87;19.67;;;2.50;99.90;;;;;;5074351;28;20244;-64
2021/12/10 09:37:41;;;;;;;44.37;20.20;;;2.50;99.90;;;;;;5077053;28;20229;-66
2021/12/10 09:40:13;;;;;;;38.43;20.50;;;2.50;99.90;;;;;;5076275;28;20220;-67
2021/12/10 09:42:40;;;;;;;39.17;21.33;;;2.60;99.90;;;;;;5074559;28;20246;-66
2021/12/10 09:45:10;;;;;;;36.53;20.03;;;2.60;99.90;;;;;;5065902;28;20253;-64
2021/12/10 09:47:38;;;;;;;37.70;19.97;;;2.60;99.90;;;;;;5065668;28;20220;-67
2021/12/10 09:50:07;;;;;;;38.10;20.90;;;2.60;99.90;;;;;;5080211;28;20247;-66
2021/12/10 09:52:35;;;;;;;36.03;20.00;;;2.60;99.90;;;;;;5089335;28;20252;-65
2021/12/10 09:55:03;;;;;;;43.17;21.17;;;2.60;99.90;;;;;;5076180;28;20228;-66
2021/12/10 09:57:34;;;;;;;38.50;20.37;;;2.60;99.90;;;;;;5089733;28;20730;-65
2021/12/10 10:00:04;;;;;;;38.33;20.60;;;2.60;99.90;;;;;;5076668;28;20213;-67
2021/12/10 10:02:32;;;;;;;38.87;21.17;;;2.60;99.90;;;;;;5077435;28;20241;-66
2021/12/10 10:04:59;;;;;;;38.37;19.97;;;2.60;99.90;;;;;;5074010;28;20201;-65
2021/12/10 10:07:28;;;;;;;40.90;21.23;;;2.60;99.90;;;;;;5083725;28;20316;-65
2021/12/10 10:10:06;;;;;;;41.20;22.23;;;2.60;99.90;;;;;;5062662;28;20263;-65
2021/12/10 10:12:36;;;;;;;38.10;20.33;;;2.60;99.90;;;;;;5058477;28;20221;-65
2021/12/10 10:15:07;;;;;;;40.17;20.33;;;2.60;99.90;;;;;;5071728;28;20201;-65
2021/12/10 10:17:35;;;;;;;39.80;21.20;;;2.60;99.90;;;;;;5074151;28;20240;-65
2021/12/10 10:20:02;;;;;;;35.83;20.37;;;2.70;99.90;;;;;;5073578;28;20240;-65
2021/12/10 10:22:30;;;;;;;34.27;19.87;;;2.60;99.90;;;;;;5069858;28;20733;-64
2021/12/10 10:24:59;;;;;;;37.07;20.70;;;2.70;99.90;;;;;;5075133;28;20213;-65
2021/12/10 10:27:29;;;;;;;38.07;18.57;;;2.70;99.90;;;;;;5074545;28;20249;-64
2021/12/10 10:30:01;;;;;;;32.40;18.10;;;2.70;99.90;;;;;;5073875;28;20574;-65
2021/12/10 10:32:32;;;;;;;37.83;19.07;;;2.70;99.90;;;;;;5069341;28;20244;-65
2021/12/10 10:35:04;;;;;;;30.83;17.70;;;2.70;99.90;;;;;;5066546;28;20205;-65
2021/12/10 10:37:33;;;;;;;36.50;18.40;;;2.70;99.90;;;;;;5068835;28;20205;-66
2021/12/10 10:40:02;;;;;;;34.47;18.43;;;2.70;99.90;;;;;;5072881;28;20209;-65
2021/12/10 10:42:31;;;;;;;31.77;16.80;;;2.70;99.90;;;;;;5069123;28;20244;-65
2021/12/10 10:45:00;;;;;;;31.37;17.57;;;2.80;99.90;;;;;;5065800;28;20212;-64
2021/12/10 10:47:27;;;;;;;30.50;16.83;;;2.80;99.90;;;;;;5069608;28;20233;-64
2021/12/10 10:49:56;;;;;;;33.23;17.60;;;2.80;99.90;;;;;;5063774;28;20677;-65
2021/12/10 10:52:28;;;;;;;32.13;16.47;;;2.80;99.90;;;;;;5073677;28;20248;-64
2021/12/10 10:54:58;;;;;;;33.07;16.77;;;2.80;99.90;;;;;;5070166;28;20198;-66
2021/12/10 10:57:31;;;;;;;34.03;16.60;;;2.80;99.90;;;;;;5067812;28;20209;-65
2021/12/10 11:00:11;;;;;;;34.43;17.87;;;2.80;99.90;;;;;;5068241;28;20289;-64
2021/12/10 11:02:41;;;;;;;30.80;16.07;;;2.90;99.90;;;;;;5066523;28;20608;-66
2021/12/10 11:05:13;;;;;;;28.80;15.37;;;2.90;99.90;;;;;;5071496;28;20213;-66
2021/12/10 11:07:46;;;;;;;28.67;16.50;;;3.00;99.90;;;;;;5071267;28;20233;-64
2021/12/10 11:10:23;;;;;;;28.03;16.27;;;3.00;99.90;;;;;;5072186;28;20205;-65
2021/12/10 11:12:51;;;;;;;29.13;16.37;;;3.00;99.90;;;;;;5063330;28;20236;-65
2021/12/10 11:15:20;;;;;;;27.87;16.80;;;3.00;99.90;;;;;;5069518;28;20251;-65
2021/12/10 11:17:50;;;;;;;26.07;15.50;;;3.00;99.90;;;;;;5064559;28;20578;-65
2021/12/10 11:20:23;;;;;;;27.17;15.40;;;3.00;99.90;;;;;;5069787;28;20240;-65
2021/12/10 11:22:53;;;;;;;33.97;17.17;;;3.00;99.90;;;;;;5065112;28;20200;-65
2021/12/10 11:25:25;;;;;;;29.90;16.33;;;3.00;99.90;;;;;;5065405;28;20242;-65
2021/12/10 11:28:04;;;;;;;30.97;15.60;;;3.00;99.90;;;;;;5072043;28;20209;-64
2021/12/10 11:30:32;;;;;;;29.13;15.63;;;3.00;99.90;;;;;;5071857;28;20209;-66
2021/12/10 11:33:07;;;;;;;30.53;16.40;;;3.00;99.90;;;;;;5070413;28;20728;-64
2021/12/10 11:35:37;;;;;;;31.23;16.00;;;3.10;99.90;;;;;;5068542;28;20736;-64
2021/12/10 11:38:08;;;;;;;32.00;16.53;;;3.10;99.90;;;;;;5064801;28;20253;-68
2021/12/10 11:40:42;;;;;;;35.73;17.60;;;3.10;99.90;;;;;;5071197;28;20712;-69
2021/12/10 11:43:31;;;;;;;31.03;16.77;;;3.10;99.90;;;;;;5072351;28;20431;-67
2021/12/10 11:46:15;;;;;;;31.67;17.53;;;3.10;99.90;;;;;;5069607;28;20201;-66
2021/12/10 11:48:45;;;;;;;29.30;16.07;;;3.10;99.90;;;;;;5070982;28;20260;-66
2021/12/10 11:51:15;;;;;;;33.83;17.60;;;3.10;99.90;;;;;;5069227;28;20209;-67
2021/12/10 11:53:47;;;;;;;28.67;17.07;;;3.10;99.90;;;;;;5080055;28;20303;-67
2021/12/10 11:56:19;;;;;;;33.30;17.27;;;3.10;99.90;;;;;;5071834;28;20348;-66
2021/12/10 11:59:06;;;;;;;34.07;17.77;;;3.10;99.90;;;;;;5060005;28;20837;-67
2021/12/10 12:01:44;;;;;;;30.80;16.50;;;3.10;99.90;;;;;;5063874;28;20565;-66
2021/12/10 12:04:20;;;;;;;37.10;18.60;;;3.10;99.90;;;;;;5069890;28;20613;-67
2021/12/10 12:06:49;;;;;;;38.77;17.87;;;3.10;99.90;;;;;;5064669;28;20623;-65
2021/12/10 12:09:30;;;;;;;37.30;17.53;;;3.10;99.90;;;;;;5059558;28;20649;-67
2021/12/10 12:12:13;;;;;;;38.30;19.90;;;3.10;99.90;;;;;;5062583;28;20228;-66
2021/12/10 12:14:48;;;;;;;37.53;18.97;;;3.10;99.90;;;;;;5064609;28;20232;-67
2021/12/10 12:17:29;;;;;;;35.93;18.23;;;3.10;99.90;;;;;;5069789;28;20930;-68
2021/12/10 12:19:56;;;;;;;35.03;18.40;;;3.10;99.90;;;;;;5069434;28;20292;-66
2021/12/10 12:25:26;;;;;;;38.17;18.10;;;3.10;99.90;;;;;;5067083;28;20684;-66
2021/12/10 12:28:05;;;;;;;41.77;20.63;;;3.00;99.90;;;;;;5067690;28;20197;-68
2021/12/10 12:30:34;;;;;;;38.53;20.20;;;3.00;99.90;;;;;;5068842;28;20244;-67
2021/12/10 12:33:01;;;;;;;40.23;21.10;;;3.00;99.90;;;;;;5069575;28;20309;-68
2021/12/10 12:35:31;;;;;;;39.63;20.27;;;3.00;99.90;;;;;;5068042;28;20312;-68
2021/12/10 12:38:15;;;;;;;43.90;20.77;;;3.00;99.90;;;;;;5071039;28;20237;-70
2021/12/10 12:40:46;;;;;;;42.27;21.00;;;3.00;99.90;;;;;;5069411;28;20720;-68
2021/12/10 12:43:13;;;;;;;43.83;21.13;;;3.10;99.90;;;;;;5060865;28;20837;-66
2021/12/10 12:45:43;;;;;;;41.97;21.13;;;3.10;99.90;;;;;;5068977;28;20292;-67
2021/12/10 12:48:14;;;;;;;38.83;20.67;;;3.10;99.90;;;;;;5069875;28;20213;-68
2021/12/10 12:50:43;;;;;;;37.60;19.77;;;3.00;99.90;;;;;;5067716;28;20653;-67
2021/12/10 12:53:15;;;;;;;36.23;20.00;;;3.00;99.90;;;;;;5071127;28;20207;-67
2021/12/10 12:55:49;;;;;;;40.53;21.37;;;3.00;99.90;;;;;;5075516;28;20205;-67
2021/12/10 12:58:22;;;;;;;38.40;20.43;;;3.00;99.90;;;;;;5080898;28;20291;-68
2021/12/10 13:01:00;;;;;;;40.10;19.83;;;2.90;99.90;;;;;;5081034;28;20204;-66